createdAt,value
2022-09-03T00:00:43.204Z,1015.76
2022-09-03T00:01:43.184Z,1015.79
2022-09-03T00:02:43.253Z,1015.73
2022-09-03T00:03:43.152Z,1015.77
2022-09-03T00:04:43.179Z,1015.76
2022-09-03T00:05:44.483Z,1015.75
2022-09-03T00:06:43.173Z,1015.73
2022-09-03T00:07:43.151Z,1015.70
2022-09-03T00:08:43.139Z,1015.72
2022-09-03T00:09:43.065Z,1015.68
2022-09-03T00:10:43.101Z,1015.71
2022-09-03T00:11:43.265Z,1015.71
2022-09-03T00:12:43.095Z,1015.71
2022-09-03T00:13:43.337Z,1015.70
2022-09-03T00:14:43.086Z,1015.73
2022-09-03T00:15:43.038Z,1015.74
2022-09-03T00:16:43.055Z,1015.71
2022-09-03T00:17:42.996Z,1015.71
2022-09-03T00:18:43.065Z,1015.72
2022-09-03T00:19:42.940Z,1015.68
2022-09-03T00:20:42.977Z,1015.74
2022-09-03T00:21:42.931Z,1015.69
2022-09-03T00:22:42.934Z,1015.69
2022-09-03T00:23:42.979Z,1015.68
2022-09-03T00:24:42.955Z,1015.73
2022-09-03T00:25:42.882Z,1015.71
2022-09-03T00:26:42.887Z,1015.72
2022-09-03T00:27:43.928Z,1015.75
2022-09-03T00:28:42.841Z,1015.70
2022-09-03T00:29:42.867Z,1015.75
2022-09-03T00:30:42.929Z,1015.74
2022-09-03T00:31:42.833Z,1015.73
2022-09-03T00:32:42.816Z,1015.71
2022-09-03T00:33:42.845Z,1015.74
2022-09-03T00:34:42.785Z,1015.73
2022-09-03T00:35:42.809Z,1015.73
2022-09-03T00:36:43.847Z,1015.71
2022-09-03T00:37:42.927Z,1015.71
2022-09-03T00:38:42.871Z,1015.72
2022-09-03T00:39:45.609Z,1015.71
2022-09-03T00:40:42.735Z,1015.69
2022-09-03T00:41:42.712Z,1015.68
2022-09-03T00:42:42.740Z,1015.76
2022-09-03T00:43:42.937Z,1015.71
2022-09-03T00:44:42.668Z,1015.68
2022-09-03T00:45:42.723Z,1015.67
2022-09-03T00:46:42.719Z,1015.71
2022-09-03T00:47:42.626Z,1015.73
2022-09-03T00:48:42.652Z,1015.70
2022-09-03T00:49:42.609Z,1015.75
2022-09-03T00:50:42.943Z,1015.70
2022-09-03T00:51:43.647Z,1015.75
2022-09-03T00:52:42.589Z,1015.72
2022-09-03T00:53:42.575Z,1015.69
2022-09-03T00:54:42.606Z,1015.71
2022-09-03T00:55:42.534Z,1015.72
2022-09-03T00:56:42.636Z,1015.74
2022-09-03T00:57:42.536Z,1015.74
2022-09-03T00:58:42.495Z,1015.67
2022-09-03T00:59:42.510Z,1015.69
2022-09-03T01:00:42.525Z,1015.74
2022-09-03T01:01:42.702Z,1015.74
2022-09-03T01:02:42.582Z,1015.78
2022-09-03T01:03:42.722Z,1015.72
2022-09-03T01:04:42.443Z,1015.74
2022-09-03T01:05:42.427Z,1015.71
2022-09-03T01:06:43.362Z,1015.69
2022-09-03T01:07:42.417Z,1015.70
2022-09-03T01:08:43.964Z,1015.77
2022-09-03T01:09:42.389Z,1015.76
2022-09-03T01:10:43.369Z,1015.74
2022-09-03T01:11:42.380Z,1015.73
2022-09-03T01:12:42.392Z,1015.81
2022-09-03T01:13:42.330Z,1015.81
2022-09-03T01:14:42.362Z,1015.77
2022-09-03T01:15:42.386Z,1015.82
2022-09-03T01:16:42.305Z,1015.82
2022-09-03T01:17:42.380Z,1015.78
2022-09-03T01:18:42.333Z,1015.80
2022-09-03T01:19:42.323Z,1015.84
2022-09-03T01:20:42.312Z,1015.79
2022-09-03T01:21:42.244Z,1015.77
2022-09-03T01:22:42.237Z,1015.76
2022-09-03T01:23:42.325Z,1015.77
2022-09-03T01:24:42.282Z,1015.80
2022-09-03T01:25:42.246Z,1015.79
2022-09-03T01:26:42.195Z,1015.78
2022-09-03T01:27:42.162Z,1015.77
2022-09-03T01:28:42.221Z,1015.73
2022-09-03T01:29:42.152Z,1015.78
2022-09-03T01:30:42.240Z,1015.77
2022-09-03T01:31:42.126Z,1015.72
2022-09-03T01:32:42.153Z,1015.73
2022-09-03T01:33:42.841Z,1015.73
2022-09-03T01:34:42.086Z,1015.76
2022-09-03T01:35:42.078Z,1015.76
2022-09-03T01:36:42.118Z,1015.79
2022-09-03T01:37:42.054Z,1015.81
2022-09-03T01:38:42.075Z,1015.77
2022-09-03T01:39:42.161Z,1015.76
2022-09-03T01:40:42.027Z,1015.70
2022-09-03T01:41:42.031Z,1015.69
2022-09-03T01:42:42.145Z,1015.73
2022-09-03T01:43:45.269Z,1015.74
2022-09-03T01:44:41.979Z,1015.74
2022-09-03T01:45:51.297Z,1015.68
2022-09-03T01:46:42.038Z,1015.74
2022-09-03T01:47:41.964Z,1015.74
2022-09-03T01:48:42.006Z,1015.72
2022-09-03T01:49:41.923Z,1015.70
2022-09-03T01:50:41.910Z,1015.66
2022-09-03T01:51:41.893Z,1015.69
2022-09-03T01:52:41.914Z,1015.68
2022-09-03T01:53:41.874Z,1015.72
2022-09-03T01:54:41.902Z,1015.73
2022-09-03T01:55:41.862Z,1015.67
2022-09-03T01:56:41.846Z,1015.72
2022-09-03T01:57:42.030Z,1015.67
2022-09-03T01:58:41.832Z,1015.71
2022-09-03T01:59:41.804Z,1015.67
2022-09-03T02:00:41.861Z,1015.71
2022-09-03T02:01:41.803Z,1015.63
2022-09-03T02:02:41.896Z,1015.72
2022-09-03T02:03:41.761Z,1015.69
2022-09-03T02:04:41.776Z,1015.68
2022-09-03T02:05:41.752Z,1015.67
2022-09-03T02:06:41.955Z,1015.74
2022-09-03T02:07:41.781Z,1015.70
2022-09-03T02:08:42.211Z,1015.70
2022-09-03T02:09:41.691Z,1015.69
2022-09-03T02:10:41.904Z,1015.69
2022-09-03T02:11:42.377Z,1015.69
2022-09-03T02:12:41.942Z,1015.69
2022-09-03T02:13:41.646Z,1015.68
2022-09-03T02:14:41.633Z,1015.71
2022-09-03T02:15:41.645Z,1015.66
2022-09-03T02:16:42.345Z,1015.68
2022-09-03T02:17:41.600Z,1015.66
2022-09-03T02:18:41.633Z,1015.64
2022-09-03T02:19:41.586Z,1015.69
2022-09-03T02:20:41.584Z,1015.64
2022-09-03T02:21:41.625Z,1015.66
2022-09-03T02:22:41.545Z,1015.62
2022-09-03T02:23:41.535Z,1015.64
2022-09-03T02:24:41.571Z,1015.63
2022-09-03T02:25:41.551Z,1015.64
2022-09-03T02:26:41.764Z,1015.65
2022-09-03T02:27:41.504Z,1015.68
2022-09-03T02:28:41.473Z,1015.65
2022-09-03T02:29:41.467Z,1015.69
2022-09-03T02:30:41.568Z,1015.67
2022-09-03T02:31:41.458Z,1015.71
2022-09-03T02:32:41.424Z,1015.65
2022-09-03T02:33:41.411Z,1015.66
2022-09-03T02:34:41.434Z,1015.70
2022-09-03T02:35:41.412Z,1015.68
2022-09-03T02:36:41.465Z,1015.68
2022-09-03T02:37:41.392Z,1015.63
2022-09-03T02:38:41.366Z,1015.65
2022-09-03T02:39:41.394Z,1015.64
2022-09-03T02:40:41.393Z,1015.65
2022-09-03T02:41:41.318Z,1015.68
2022-09-03T02:42:41.369Z,1015.63
2022-09-03T02:43:41.303Z,1015.67
2022-09-03T02:44:41.293Z,1015.69
2022-09-03T02:45:41.385Z,1015.66
2022-09-03T02:46:42.209Z,1015.66
2022-09-03T02:47:41.261Z,1015.71
2022-09-03T02:48:41.329Z,1015.72
2022-09-03T02:49:41.237Z,1015.71
2022-09-03T02:50:41.226Z,1015.66
2022-09-03T02:51:41.223Z,1015.73
2022-09-03T02:52:41.231Z,1015.65
2022-09-03T02:53:41.196Z,1015.71
2022-09-03T02:54:41.225Z,1015.70
2022-09-03T02:55:41.166Z,1015.74
2022-09-03T02:56:41.171Z,1015.66
2022-09-03T02:57:41.136Z,1015.69
2022-09-03T02:58:41.154Z,1015.75
2022-09-03T02:59:41.168Z,1015.78
2022-09-03T03:00:41.237Z,1015.74
2022-09-03T03:01:41.897Z,1015.73
2022-09-03T03:02:41.136Z,1015.71
2022-09-03T03:03:41.091Z,1015.74
2022-09-03T03:04:41.068Z,1015.71
2022-09-03T03:05:41.065Z,1015.72
2022-09-03T03:06:41.113Z,1015.72
2022-09-03T03:07:41.913Z,1015.74
2022-09-03T03:08:41.020Z,1015.78
2022-09-03T03:09:41.020Z,1015.74
2022-09-03T03:10:41.000Z,1015.75
2022-09-03T03:11:40.988Z,1015.74
2022-09-03T03:12:41.035Z,1015.71
2022-09-03T03:13:40.968Z,1015.69
2022-09-03T03:14:40.979Z,1015.70
2022-09-03T03:15:40.934Z,1015.75
2022-09-03T03:16:40.965Z,1015.73
2022-09-03T03:17:40.914Z,1015.76
2022-09-03T03:18:40.946Z,1015.73
2022-09-03T03:19:40.934Z,1015.71
2022-09-03T03:20:40.881Z,1015.73
2022-09-03T03:21:40.882Z,1015.80
2022-09-03T03:22:40.866Z,1015.80
2022-09-03T03:23:40.849Z,1015.76
2022-09-03T03:24:40.889Z,1015.75
2022-09-03T03:25:40.835Z,1015.79
2022-09-03T03:26:40.818Z,1015.76
2022-09-03T03:27:40.813Z,1015.79
2022-09-03T03:28:40.830Z,1015.84
2022-09-03T03:29:40.821Z,1015.84
2022-09-03T03:30:40.851Z,1015.81
2022-09-03T03:31:40.764Z,1015.79
2022-09-03T03:32:40.746Z,1015.78
2022-09-03T03:33:41.380Z,1015.77
2022-09-03T03:34:40.745Z,1015.77
2022-09-03T03:35:40.710Z,1015.75
2022-09-03T03:36:40.759Z,1015.79
2022-09-03T03:37:40.707Z,1015.81
2022-09-03T03:38:40.694Z,1015.82
2022-09-03T03:39:40.982Z,1015.82
2022-09-03T03:40:40.935Z,1015.81
2022-09-03T03:41:40.663Z,1015.83
2022-09-03T03:42:40.677Z,1015.79
2022-09-03T03:43:40.645Z,1015.78
2022-09-03T03:44:40.628Z,1015.82
2022-09-03T03:45:40.650Z,1015.86
2022-09-03T03:46:40.580Z,1015.84
2022-09-03T03:47:41.338Z,1015.94
2022-09-03T03:48:40.627Z,1015.88
2022-09-03T03:49:40.554Z,1015.91
2022-09-03T03:50:40.539Z,1015.84
2022-09-03T03:51:40.537Z,1015.86
2022-09-03T03:52:40.521Z,1015.95
2022-09-03T03:53:40.510Z,1015.92
2022-09-03T03:54:40.585Z,1015.96
2022-09-03T03:55:40.481Z,1015.86
2022-09-03T03:56:40.478Z,1015.90
2022-09-03T03:57:40.561Z,1015.93
2022-09-03T03:58:40.455Z,1015.94
2022-09-03T03:59:40.434Z,1015.91
2022-09-03T04:00:40.473Z,1015.94
2022-09-03T04:01:40.470Z,1015.91
2022-09-03T04:02:40.476Z,1015.89
2022-09-03T04:03:40.403Z,1015.89
2022-09-03T04:04:40.385Z,1015.85
2022-09-03T04:05:46.310Z,1015.87
2022-09-03T04:06:40.398Z,1015.85
2022-09-03T04:07:40.340Z,1015.89
2022-09-03T04:08:40.338Z,1015.85
2022-09-03T04:09:40.324Z,1015.84
2022-09-03T04:10:40.328Z,1015.86
2022-09-03T04:11:40.302Z,1015.82
2022-09-03T04:12:43.352Z,1015.82
2022-09-03T04:13:40.296Z,1015.86
2022-09-03T04:14:40.277Z,1015.84
2022-09-03T04:15:40.272Z,1015.86
2022-09-03T04:16:40.313Z,1015.82
2022-09-03T04:17:40.262Z,1015.82
2022-09-03T04:18:40.284Z,1015.83
2022-09-03T04:19:40.208Z,1015.87
2022-09-03T04:20:40.834Z,1015.81
2022-09-03T04:21:40.249Z,1015.84
2022-09-03T04:22:40.184Z,1015.90
2022-09-03T04:23:40.170Z,1015.89
2022-09-03T04:24:40.227Z,1015.86
2022-09-03T04:25:40.202Z,1015.90
2022-09-03T04:26:40.277Z,1015.88
2022-09-03T04:27:40.364Z,1015.85
2022-09-03T04:28:40.109Z,1015.89
2022-09-03T04:29:40.103Z,1015.88
2022-09-03T04:30:40.117Z,1015.90
2022-09-03T04:31:40.222Z,1015.90
2022-09-03T04:32:40.069Z,1015.85
2022-09-03T04:33:40.067Z,1015.90
2022-09-03T04:34:40.034Z,1015.90
2022-09-03T04:35:40.035Z,1015.86
2022-09-03T04:36:40.075Z,1015.88
2022-09-03T04:37:40.069Z,1015.87
2022-09-03T04:38:40.020Z,1015.86
2022-09-03T04:39:41.115Z,1015.86
2022-09-03T04:40:41.818Z,1015.86
2022-09-03T04:41:40.325Z,1015.85
2022-09-03T04:42:40.034Z,1015.91
2022-09-03T04:43:39.956Z,1015.88
2022-09-03T04:44:41.343Z,1015.87
2022-09-03T04:45:40.037Z,1015.87
2022-09-03T04:46:40.182Z,1015.87
2022-09-03T04:47:42.056Z,1015.88
2022-09-03T04:48:39.923Z,1015.85
2022-09-03T04:49:40.886Z,1015.86
2022-09-03T04:50:39.864Z,1015.86
2022-09-03T04:51:40.000Z,1015.89
2022-09-03T04:52:45.827Z,1015.85
2022-09-03T04:53:39.830Z,1015.88
2022-09-03T04:54:40.400Z,1015.86
2022-09-03T04:55:39.801Z,1015.88
2022-09-03T04:56:39.782Z,1015.88
2022-09-03T04:57:39.792Z,1015.87
2022-09-03T04:58:39.772Z,1015.87
2022-09-03T04:59:39.799Z,1015.85
2022-09-03T05:00:39.815Z,1015.89
2022-09-03T05:01:39.789Z,1015.89
2022-09-03T05:02:39.759Z,1015.90
2022-09-03T05:03:39.728Z,1015.86
2022-09-03T05:04:39.700Z,1015.88
2022-09-03T05:05:39.692Z,1015.89
2022-09-03T05:06:39.714Z,1015.82
2022-09-03T05:07:39.662Z,1015.86
2022-09-03T05:08:39.666Z,1015.78
2022-09-03T05:09:39.655Z,1015.75
2022-09-03T05:10:39.621Z,1015.75
2022-09-03T05:11:39.620Z,1015.73
2022-09-03T05:12:39.671Z,1015.70
2022-09-03T05:13:39.587Z,1015.68
2022-09-03T05:14:39.583Z,1015.70
2022-09-03T05:15:39.594Z,1015.72
2022-09-03T05:16:39.595Z,1015.70
2022-09-03T05:17:39.543Z,1015.74
2022-09-03T05:18:39.591Z,1015.69
2022-09-03T05:19:39.547Z,1015.73
2022-09-03T05:20:39.504Z,1015.73
2022-09-03T05:21:39.502Z,1015.70
2022-09-03T05:22:39.499Z,1015.74
2022-09-03T05:23:39.478Z,1015.71
2022-09-03T05:24:40.278Z,1015.72
2022-09-03T05:25:39.452Z,1015.69
2022-09-03T05:26:42.905Z,1015.67
2022-09-03T05:27:39.431Z,1015.74
2022-09-03T05:29:33.242Z,1015.75
2022-09-03T05:31:33.551Z,1015.73
2022-09-03T05:32:33.440Z,1015.76
2022-09-03T05:33:33.456Z,1015.78
2022-09-03T05:34:33.484Z,1015.75
2022-09-03T05:35:33.518Z,1015.75
2022-09-03T05:36:33.781Z,1015.78
2022-09-03T05:37:33.392Z,1015.73
2022-09-03T05:38:33.383Z,1015.74
2022-09-03T05:39:33.546Z,1015.68
2022-09-03T05:40:34.389Z,1015.72
2022-09-03T05:41:33.356Z,1015.64
2022-09-03T05:42:33.365Z,1015.67
2022-09-03T05:43:33.340Z,1015.65
2022-09-03T05:44:34.357Z,1015.67
2022-09-03T05:45:33.381Z,1015.64
2022-09-03T05:46:33.321Z,1015.64
2022-09-03T05:47:33.297Z,1015.59
2022-09-03T05:48:33.306Z,1015.64
2022-09-03T05:49:34.955Z,1015.64
2022-09-03T05:50:33.259Z,1015.60
2022-09-03T05:51:33.232Z,1015.63
2022-09-03T05:52:33.228Z,1015.69
2022-09-03T05:53:33.243Z,1015.68
2022-09-03T05:54:33.241Z,1015.66
2022-09-03T05:55:33.201Z,1015.67
2022-09-03T05:56:33.200Z,1015.71
2022-09-03T05:57:33.245Z,1015.68
2022-09-03T05:58:33.162Z,1015.65
2022-09-03T05:59:33.220Z,1015.65
2022-09-03T06:00:33.840Z,1015.71
2022-09-03T06:01:33.126Z,1015.67
2022-09-03T06:02:33.202Z,1015.65
2022-09-03T06:03:33.332Z,1015.72
2022-09-03T06:04:33.123Z,1015.69
2022-09-03T06:05:33.132Z,1015.60
2022-09-03T06:06:33.181Z,1015.58
2022-09-03T06:07:33.123Z,1015.62
2022-09-03T06:08:33.097Z,1015.61
2022-09-03T06:09:33.123Z,1015.58
2022-09-03T06:10:40.733Z,1015.63
2022-09-03T06:11:33.090Z,1015.60
2022-09-03T06:12:33.046Z,1015.57
2022-09-03T06:13:33.136Z,1015.58
2022-09-03T06:14:33.031Z,1015.53
2022-09-03T06:15:32.963Z,1015.53
2022-09-03T06:16:33.294Z,1015.54
2022-09-03T06:17:32.983Z,1015.55
2022-09-03T06:18:33.084Z,1015.59
2022-09-03T06:19:33.052Z,1015.57
2022-09-03T06:20:36.987Z,1015.53
2022-09-03T06:21:32.962Z,1015.47
2022-09-03T06:22:32.922Z,1015.49
2022-09-03T06:23:32.947Z,1015.46
2022-09-03T06:24:32.978Z,1015.46
2022-09-03T06:25:33.060Z,1015.50
2022-09-03T06:26:32.893Z,1015.47
2022-09-03T06:27:33.179Z,1015.51
2022-09-03T06:28:32.908Z,1015.48
2022-09-03T06:29:33.283Z,1015.53
2022-09-03T06:30:33.256Z,1015.53
2022-09-03T06:31:33.072Z,1015.51
2022-09-03T06:32:32.806Z,1015.59
2022-09-03T06:33:32.893Z,1015.57
2022-09-03T06:34:32.892Z,1015.53
2022-09-03T06:35:39.205Z,1015.57
2022-09-03T06:36:32.911Z,1015.58
2022-09-03T06:37:32.917Z,1015.55
2022-09-03T06:38:32.918Z,1015.56
2022-09-03T06:39:32.977Z,1015.57
2022-09-03T06:40:32.902Z,1015.60
2022-09-03T06:41:33.684Z,1015.55
2022-09-03T06:42:32.919Z,1015.54
2022-09-03T06:43:32.799Z,1015.58
2022-09-03T06:44:33.029Z,1015.49
2022-09-03T06:45:33.024Z,1015.51
2022-09-03T06:46:32.625Z,1015.52
2022-09-03T06:47:32.691Z,1015.53
2022-09-03T06:48:32.693Z,1015.51
2022-09-03T06:49:34.678Z,1015.51
2022-09-03T06:50:34.728Z,1015.53
2022-09-03T06:51:32.695Z,1015.53
2022-09-03T06:52:32.654Z,1015.53
2022-09-03T06:53:32.599Z,1015.53
2022-09-03T06:54:32.650Z,1015.54
2022-09-03T06:55:32.631Z,1015.51
2022-09-03T06:56:37.380Z,1015.53
2022-09-03T06:57:32.611Z,1015.56
2022-09-03T06:58:32.552Z,1015.53
2022-09-03T06:59:32.607Z,1015.52
2022-09-03T07:00:32.868Z,1015.50
2022-09-03T07:01:32.839Z,1015.49
2022-09-03T07:02:32.809Z,1015.52
2022-09-03T07:03:32.642Z,1015.52
2022-09-03T07:04:33.634Z,1015.52
2022-09-03T07:05:32.532Z,1015.51
2022-09-03T07:06:32.781Z,1015.51
2022-09-03T07:07:32.719Z,1015.51
2022-09-03T07:08:33.470Z,1015.52
2022-09-03T07:09:33.020Z,1015.54
2022-09-03T07:10:32.377Z,1015.48
2022-09-03T07:11:32.514Z,1015.52
2022-09-03T07:12:32.659Z,1015.51
2022-09-03T07:13:32.347Z,1015.50
2022-09-03T07:14:32.328Z,1015.52
2022-09-03T07:15:33.110Z,1015.47
2022-09-03T07:16:32.424Z,1015.50
2022-09-03T07:17:33.005Z,1015.48
2022-09-03T07:18:32.524Z,1015.49
2022-09-03T07:19:32.657Z,1015.46
2022-09-03T07:20:32.540Z,1015.53
2022-09-03T07:21:32.416Z,1015.48
2022-09-03T07:22:32.425Z,1015.49
2022-09-03T07:23:32.288Z,1015.49
2022-09-03T07:24:32.329Z,1015.48
2022-09-03T07:25:32.304Z,1015.50
2022-09-03T07:26:32.210Z,1015.51
2022-09-03T07:27:32.418Z,1015.44
2022-09-03T07:28:32.328Z,1015.51
2022-09-03T07:29:32.203Z,1015.55
2022-09-03T07:30:32.364Z,1015.54
2022-09-03T07:31:32.202Z,1015.56
2022-09-03T07:32:32.322Z,1015.54
2022-09-03T07:33:33.901Z,1015.62
2022-09-03T07:34:32.098Z,1015.53
2022-09-03T07:35:32.105Z,1015.55
2022-09-03T07:36:34.308Z,1015.55
2022-09-03T07:37:32.120Z,1015.57
2022-09-03T07:38:32.282Z,1015.51
2022-09-03T07:39:32.088Z,1015.54
2022-09-03T07:40:32.025Z,1015.56
2022-09-03T07:41:32.029Z,1015.47
2022-09-03T07:42:32.118Z,1015.46
2022-09-03T07:43:32.040Z,1015.60
2022-09-03T07:44:32.019Z,1015.44
2022-09-03T07:45:32.006Z,1015.52
2022-09-03T07:46:31.962Z,1015.49
2022-09-03T07:47:33.078Z,1015.52
2022-09-03T07:49:48.762Z,1015.50
2022-09-03T07:50:48.997Z,1015.44
2022-09-03T07:51:49.050Z,1015.49
2022-09-03T07:52:49.103Z,1015.50
2022-09-03T07:53:49.231Z,1015.51
2022-09-03T07:54:49.020Z,1015.50
2022-09-03T07:55:50.636Z,1015.54
2022-09-03T07:56:50.102Z,1015.49
2022-09-03T07:57:49.095Z,1015.53
2022-09-03T07:58:51.551Z,1015.57
2022-09-03T07:59:49.130Z,1015.52
2022-09-03T08:00:49.236Z,1015.56
2022-09-03T08:01:57.433Z,1015.56
2022-09-03T08:04:05.666Z,1015.52
2022-09-03T08:05:06.763Z,1015.51
2022-09-03T08:06:06.896Z,1015.57
2022-09-03T08:07:06.531Z,1015.54
2022-09-03T08:08:06.591Z,1015.54
2022-09-03T08:09:06.535Z,1015.57
2022-09-03T08:10:06.609Z,1015.61
2022-09-03T08:11:07.162Z,1015.64
2022-09-03T08:12:06.579Z,1015.50
2022-09-03T08:13:06.567Z,1015.47
2022-09-03T08:14:06.881Z,1015.49
2022-09-03T08:15:06.473Z,1015.49
2022-09-03T08:16:07.558Z,1015.45
2022-09-03T08:17:06.509Z,1015.45
2022-09-03T08:18:06.499Z,1015.46
2022-09-03T08:19:06.446Z,1015.47
2022-09-03T08:20:06.592Z,1015.47
2022-09-03T08:21:06.457Z,1015.45
2022-09-03T08:22:06.422Z,1015.47
2022-09-03T08:23:06.381Z,1015.54
2022-09-03T08:24:06.445Z,1015.56
2022-09-03T08:25:06.393Z,1015.55
2022-09-03T08:26:07.366Z,1015.51
2022-09-03T08:27:06.320Z,1015.48
2022-09-03T08:28:06.322Z,1015.49
2022-09-03T08:29:06.337Z,1015.52
2022-09-03T08:30:06.369Z,1015.56
2022-09-03T08:31:06.368Z,1015.57
2022-09-03T08:32:06.249Z,1015.55
2022-09-03T08:33:06.230Z,1015.54
2022-09-03T08:34:06.237Z,1015.57
2022-09-03T08:35:06.938Z,1015.57
2022-09-03T08:36:06.301Z,1015.51
2022-09-03T08:37:06.205Z,1015.51
2022-09-03T08:38:06.243Z,1015.45
2022-09-03T08:39:06.223Z,1015.55
2022-09-03T08:40:06.162Z,1015.56
2022-09-03T08:41:06.436Z,1015.52
2022-09-03T08:42:06.188Z,1015.56
2022-09-03T08:43:06.921Z,1015.54
2022-09-03T08:44:06.104Z,1015.54
2022-09-03T08:45:06.086Z,1015.61
2022-09-03T08:46:06.445Z,1015.60
2022-09-03T08:47:06.184Z,1015.58
2022-09-03T08:48:06.429Z,1015.54
2022-09-03T08:49:06.202Z,1015.54
2022-09-03T08:50:06.197Z,1015.57
2022-09-03T08:51:06.359Z,1015.54
2022-09-03T08:52:06.449Z,1015.55
2022-09-03T08:53:06.743Z,1015.52
2022-09-03T08:54:06.283Z,1015.48
2022-09-03T08:55:06.241Z,1015.60
2022-09-03T08:56:06.106Z,1015.56
2022-09-03T08:57:06.060Z,1015.59
2022-09-03T08:58:06.192Z,1015.57
2022-09-03T08:59:06.085Z,1015.51
2022-09-03T09:00:06.274Z,1015.55
2022-09-03T09:01:06.034Z,1015.53
2022-09-03T09:02:06.087Z,1015.59
2022-09-03T09:03:06.312Z,1015.59
2022-09-03T09:04:06.050Z,1015.58
2022-09-03T09:05:07.624Z,1015.49
2022-09-03T09:06:05.883Z,1015.64
2022-09-03T09:07:05.853Z,1015.58
2022-09-03T09:08:05.826Z,1015.56
2022-09-03T09:09:06.090Z,1015.59
2022-09-03T09:10:05.903Z,1015.50
2022-09-03T09:11:05.938Z,1015.56
2022-09-03T09:12:06.279Z,1015.54
2022-09-03T09:13:05.923Z,1015.57
2022-09-03T09:14:05.967Z,1015.54
2022-09-03T09:15:06.184Z,1015.54
2022-09-03T09:16:05.907Z,1015.58
2022-09-03T09:17:05.761Z,1015.56
2022-09-03T09:18:05.826Z,1015.52
2022-09-03T09:19:05.876Z,1015.52
2022-09-03T09:20:05.793Z,1015.49
2022-09-03T09:21:05.712Z,1015.52
2022-09-03T09:22:06.562Z,1015.59
2022-09-03T09:23:05.804Z,1015.50
2022-09-03T09:24:06.053Z,1015.51
2022-09-03T09:25:05.672Z,1015.54
2022-09-03T09:26:05.652Z,1015.52
2022-09-03T09:27:05.635Z,1015.53
2022-09-03T09:28:05.667Z,1015.54
2022-09-03T09:29:05.592Z,1015.46
2022-09-03T09:30:05.674Z,1015.45
2022-09-03T09:31:05.619Z,1015.48
2022-09-03T09:32:05.957Z,1015.50
2022-09-03T09:33:05.561Z,1015.48
2022-09-03T09:34:06.489Z,1015.38
2022-09-03T09:35:05.548Z,1015.47
2022-09-03T09:36:05.604Z,1015.43
2022-09-03T09:37:05.655Z,1015.41
2022-09-03T09:38:05.643Z,1015.47
2022-09-03T09:39:06.435Z,1015.39
2022-09-03T09:40:05.713Z,1015.43
2022-09-03T09:41:05.625Z,1015.46
2022-09-03T09:42:05.524Z,1015.33
2022-09-03T09:43:05.488Z,1015.38
2022-09-03T09:44:05.490Z,1015.38
2022-09-03T09:45:05.443Z,1015.40
2022-09-03T09:46:07.117Z,1015.39
2022-09-03T09:47:05.464Z,1015.39
2022-09-03T09:48:05.454Z,1015.40
2022-09-03T09:49:05.508Z,1015.43
2022-09-03T09:50:05.378Z,1015.41
2022-09-03T09:51:05.445Z,1015.43
2022-09-03T09:52:05.367Z,1015.43
2022-09-03T09:53:05.392Z,1015.41
2022-09-03T09:54:05.960Z,1015.37
2022-09-03T09:55:05.347Z,1015.45
2022-09-03T09:56:05.358Z,1015.35
2022-09-03T09:57:05.311Z,1015.36
2022-09-03T09:58:10.918Z,1015.41
2022-09-03T09:59:05.285Z,1015.42
2022-09-03T10:00:05.358Z,1015.37
2022-09-03T10:01:05.274Z,1015.38
2022-09-03T10:02:05.231Z,1015.42
2022-09-03T10:03:05.353Z,1015.42
2022-09-03T10:04:05.288Z,1015.46
2022-09-03T10:05:05.213Z,1015.41
2022-09-03T10:06:05.259Z,1015.39
2022-09-03T10:07:05.182Z,1015.41
2022-09-03T10:08:05.178Z,1015.43
2022-09-03T10:09:06.000Z,1015.36
2022-09-03T10:10:05.193Z,1015.44
2022-09-03T10:11:05.802Z,1015.50
2022-09-03T10:12:05.154Z,1015.45
2022-09-03T10:13:05.104Z,1015.52
2022-09-03T10:14:05.088Z,1015.44
2022-09-03T10:15:05.119Z,1015.50
2022-09-03T10:16:05.256Z,1015.46
2022-09-03T10:17:05.073Z,1015.52
2022-09-03T10:18:05.548Z,1015.45
2022-09-03T10:19:05.038Z,1015.39
2022-09-03T10:20:05.053Z,1015.34
2022-09-03T10:21:05.050Z,1015.39
2022-09-03T10:22:05.025Z,1015.36
2022-09-03T10:23:05.001Z,1015.41
2022-09-03T10:24:07.398Z,1015.42
2022-09-03T10:25:05.074Z,1015.39
2022-09-03T10:26:04.963Z,1015.39
2022-09-03T10:27:04.967Z,1015.40
2022-09-03T10:28:04.938Z,1015.36
2022-09-03T10:29:04.930Z,1015.42
2022-09-03T10:30:04.991Z,1015.33
2022-09-03T10:31:05.041Z,1015.33
2022-09-03T10:32:04.920Z,1015.45
2022-09-03T10:33:04.925Z,1015.34
2022-09-03T10:34:04.881Z,1015.37
2022-09-03T10:35:05.869Z,1015.34
2022-09-03T10:36:04.955Z,1015.35
2022-09-03T10:37:04.853Z,1015.30
2022-09-03T10:38:04.908Z,1015.26
2022-09-03T10:39:04.833Z,1015.37
2022-09-03T10:40:04.915Z,1015.32
2022-09-03T10:41:04.854Z,1015.35
2022-09-03T10:42:04.831Z,1015.32
2022-09-03T10:43:04.787Z,1015.36
2022-09-03T10:44:04.791Z,1015.24
2022-09-03T10:45:04.748Z,1015.26
2022-09-03T10:46:04.804Z,1015.23
2022-09-03T10:47:05.463Z,1015.27
2022-09-03T10:48:04.734Z,1015.21
2022-09-03T10:49:04.703Z,1015.27
2022-09-03T10:50:04.740Z,1015.25
2022-09-03T10:51:04.673Z,1015.22
2022-09-03T10:52:04.672Z,1015.14
2022-09-03T10:53:04.661Z,1015.24
2022-09-03T10:54:04.956Z,1015.20
2022-09-03T10:55:04.643Z,1015.26
2022-09-03T10:56:04.901Z,1015.10
2022-09-03T10:57:04.621Z,1015.22
2022-09-03T10:58:04.639Z,1015.24
2022-09-03T10:59:04.589Z,1015.23
2022-09-03T11:00:04.752Z,1015.21
2022-09-03T11:01:04.878Z,1015.18
2022-09-03T11:02:04.569Z,1015.27
2022-09-03T11:03:04.581Z,1015.18
2022-09-03T11:04:04.554Z,1015.18
2022-09-03T11:05:05.290Z,1015.19
2022-09-03T11:06:04.574Z,1015.19
2022-09-03T11:07:04.510Z,1015.19
2022-09-03T11:08:04.501Z,1015.16
2022-09-03T11:09:06.766Z,1015.19
2022-09-03T11:10:04.461Z,1015.23
2022-09-03T11:11:04.442Z,1015.17
2022-09-03T11:12:04.524Z,1015.11
2022-09-03T11:13:04.433Z,1015.15
2022-09-03T11:14:04.436Z,1015.12
2022-09-03T11:15:04.423Z,1015.17
2022-09-03T11:16:04.476Z,1015.19
2022-09-03T11:17:04.479Z,1015.16
2022-09-03T11:18:04.439Z,1015.18
2022-09-03T11:19:04.372Z,1015.15
2022-09-03T11:20:04.365Z,1015.17
2022-09-03T11:21:06.682Z,1015.12
2022-09-03T11:22:04.342Z,1015.19
2022-09-03T11:23:04.338Z,1015.08
2022-09-03T11:24:04.386Z,1015.04
2022-09-03T11:25:04.325Z,1015.07
2022-09-03T11:26:04.471Z,1015.10
2022-09-03T11:27:04.289Z,1015.07
2022-09-03T11:28:04.267Z,1015.09
2022-09-03T11:29:04.307Z,1015.13
2022-09-03T11:30:04.395Z,1015.09
2022-09-03T11:31:04.328Z,1015.11
2022-09-03T11:32:04.288Z,1015.11
2022-09-03T11:33:04.245Z,1015.11
2022-09-03T11:34:04.273Z,1015.08
2022-09-03T11:35:04.289Z,1014.96
2022-09-03T11:36:04.318Z,1014.98
2022-09-03T11:37:04.222Z,1015.02
2022-09-03T11:38:05.386Z,1015.00
2022-09-03T11:39:04.256Z,1014.97
2022-09-03T11:40:04.261Z,1015.02
2022-09-03T11:41:04.361Z,1015.01
2022-09-03T11:42:04.457Z,1014.97
2022-09-03T11:43:04.100Z,1015.06
2022-09-03T11:44:04.737Z,1015.03
2022-09-03T11:45:04.133Z,1014.96
2022-09-03T11:46:04.315Z,1015.03
2022-09-03T11:47:04.490Z,1014.99
2022-09-03T11:48:04.210Z,1014.98
2022-09-03T11:49:04.202Z,1014.93
2022-09-03T11:50:04.238Z,1014.92
2022-09-03T11:51:04.874Z,1014.95
2022-09-03T11:52:04.198Z,1014.98
2022-09-03T11:53:04.121Z,1014.94
2022-09-03T11:54:04.292Z,1014.96
2022-09-03T11:55:04.101Z,1014.91
2022-09-03T11:56:04.350Z,1015.00
2022-09-03T11:57:04.005Z,1014.93
2022-09-03T11:58:04.051Z,1014.90
2022-09-03T11:59:04.158Z,1014.89
2022-09-03T12:00:04.369Z,1014.85
2022-09-03T12:01:04.018Z,1014.96
2022-09-03T12:02:04.087Z,1014.95
2022-09-03T12:03:04.002Z,1014.93
2022-09-03T12:04:04.021Z,1014.93
2022-09-03T12:05:03.956Z,1014.99
2022-09-03T12:06:04.073Z,1015.02
2022-09-03T12:07:03.898Z,1014.87
2022-09-03T12:08:08.780Z,1014.96
2022-09-03T12:09:04.104Z,1014.86
2022-09-03T12:10:05.125Z,1014.93